sensor_id;sensor_type;location;lat;lon;timestamp;P1;durP1;ratioP1;P2;durP2;ratioP2
5809;SDS011;16210;52.338;9.816;2023-02-21T00:00:18;8.07;;;7.23;;
5809;SDS011;16210;52.338;9.816;2023-02-21T00:05:40;4.40;;;3.90;;
5809;SDS011;16210;52.338;9.816;2023-02-21T00:11:01;8.13;;;7.40;;
5809;SDS011;16210;52.338;9.816;2023-02-21T00:16:25;3.93;;;3.73;;
5809;SDS011;16210;52.338;9.816;2023-02-21T00:21:47;11.90;;;6.67;;
5809;SDS011;16210;52.338;9.816;2023-02-21T00:27:08;3.77;;;3.53;;
5809;SDS011;16210;52.338;9.816;2023-02-21T00:32:29;24.67;;;13.90;;
5809;SDS011;16210;52.338;9.816;2023-02-21T00:37:51;14.87;;;10.50;;
5809;SDS011;16210;52.338;9.816;2023-02-21T00:43:12;6.77;;;6.23;;
5809;SDS011;16210;52.338;9.816;2023-02-21T00:48:33;15.23;;;11.83;;
5809;SDS011;16210;52.338;9.816;2023-02-21T00:53:55;12.43;;;10.43;;
5809;SDS011;16210;52.338;9.816;2023-02-21T00:59:17;13.03;;;9.50;;
5809;SDS011;16210;52.338;9.816;2023-02-21T01:04:37;23.70;;;14.13;;
5809;SDS011;16210;52.338;9.816;2023-02-21T01:10:00;7.73;;;7.23;;
5809;SDS011;16210;52.338;9.816;2023-02-21T01:15:21;6.83;;;6.33;;
5809;SDS011;16210;52.338;9.816;2023-02-21T01:20:42;12.13;;;8.50;;
5809;SDS011;16210;52.338;9.816;2023-02-21T01:26:07;10.30;;;6.97;;
5809;SDS011;16210;52.338;9.816;2023-02-21T01:31:31;9.93;;;6.37;;
5809;SDS011;16210;52.338;9.816;2023-02-21T01:36:52;10.13;;;6.77;;
5809;SDS011;16210;52.338;9.816;2023-02-21T01:42:14;20.53;;;6.90;;
5809;SDS011;16210;52.338;9.816;2023-02-21T01:47:37;4.70;;;4.37;;
5809;SDS011;16210;52.338;9.816;2023-02-21T01:52:58;5.07;;;4.57;;
5809;SDS011;16210;52.338;9.816;2023-02-21T01:58:21;9.27;;;7.00;;
5809;SDS011;16210;52.338;9.816;2023-02-21T02:03:43;5.10;;;4.53;;
5809;SDS011;16210;52.338;9.816;2023-02-21T02:09:14;6.40;;;5.90;;
5809;SDS011;16210;52.338;9.816;2023-02-21T02:14:50;10.10;;;6.40;;
5809;SDS011;16210;52.338;9.816;2023-02-21T02:26:07;14.70;;;8.60;;
5809;SDS011;16210;52.338;9.816;2023-02-21T02:31:31;9.93;;;7.80;;
5809;SDS011;16210;52.338;9.816;2023-02-21T02:36:44;13.93;;;7.23;;
5809;SDS011;16210;52.338;9.816;2023-02-21T02:41:53;18.23;;;10.53;;
5809;SDS011;16210;52.338;9.816;2023-02-21T02:47:00;25.37;;;13.63;;
5809;SDS011;16210;52.338;9.816;2023-02-21T02:52:07;12.60;;;8.03;;
5809;SDS011;16210;52.338;9.816;2023-02-21T02:57:12;6.23;;;5.67;;
5809;SDS011;16210;52.338;9.816;2023-02-21T03:02:32;26.87;;;13.97;;
5809;SDS011;16210;52.338;9.816;2023-02-21T03:07:45;7.53;;;6.17;;
5809;SDS011;16210;52.338;9.816;2023-02-21T03:12:54;4.27;;;3.97;;
5809;SDS011;16210;52.338;9.816;2023-02-21T03:18:12;26.33;;;16.10;;
5809;SDS011;16210;52.338;9.816;2023-02-21T03:23:21;9.13;;;8.20;;
5809;SDS011;16210;52.338;9.816;2023-02-21T03:28:25;12.53;;;10.23;;
5809;SDS011;16210;52.338;9.816;2023-02-21T03:33:28;9.60;;;8.77;;
5809;SDS011;16210;52.338;9.816;2023-02-21T03:38:33;4.00;;;3.87;;
5809;SDS011;16210;52.338;9.816;2023-02-21T03:43:37;3.37;;;3.27;;
5809;SDS011;16210;52.338;9.816;2023-02-21T03:48:41;6.97;;;6.37;;
5809;SDS011;16210;52.338;9.816;2023-02-21T03:53:56;10.90;;;9.50;;
5809;SDS011;16210;52.338;9.816;2023-02-21T03:59:09;5.83;;;5.43;;
5809;SDS011;16210;52.338;9.816;2023-02-21T04:04:13;15.43;;;9.90;;
5809;SDS011;16210;52.338;9.816;2023-02-21T04:09:18;5.80;;;5.60;;
5809;SDS011;16210;52.338;9.816;2023-02-21T04:14:23;15.07;;;7.13;;
5809;SDS011;16210;52.338;9.816;2023-02-21T04:19:26;8.03;;;6.20;;
5809;SDS011;16210;52.338;9.816;2023-02-21T04:24:31;9.10;;;7.07;;
5809;SDS011;16210;52.338;9.816;2023-02-21T04:29:35;10.90;;;4.73;;
5809;SDS011;16210;52.338;9.816;2023-02-21T04:34:39;8.97;;;8.00;;
5809;SDS011;16210;52.338;9.816;2023-02-21T04:39:44;4.10;;;3.90;;
5809;SDS011;16210;52.338;9.816;2023-02-21T04:44:50;9.90;;;8.87;;
5809;SDS011;16210;52.338;9.816;2023-02-21T04:50:02;11.37;;;5.73;;
5809;SDS011;16210;52.338;9.816;2023-02-21T04:55:08;18.73;;;11.17;;
5809;SDS011;16210;52.338;9.816;2023-02-21T05:00:12;5.97;;;4.90;;
5809;SDS011;16210;52.338;9.816;2023-02-21T05:05:16;6.70;;;3.63;;
5809;SDS011;16210;52.338;9.816;2023-02-21T05:10:20;7.40;;;5.20;;
5809;SDS011;16210;52.338;9.816;2023-02-21T05:15:32;10.90;;;4.43;;
5809;SDS011;16210;52.338;9.816;2023-02-21T05:20:35;9.53;;;5.93;;
5809;SDS011;16210;52.338;9.816;2023-02-21T05:25:40;8.87;;;5.80;;
5809;SDS011;16210;52.338;9.816;2023-02-21T05:30:43;8.20;;;6.83;;
5809;SDS011;16210;52.338;9.816;2023-02-21T05:35:47;6.77;;;4.20;;
5809;SDS011;16210;52.338;9.816;2023-02-21T05:40:52;2.37;;;2.27;;
5809;SDS011;16210;52.338;9.816;2023-02-21T05:45:56;4.30;;;2.60;;
5809;SDS011;16210;52.338;9.816;2023-02-21T05:50:59;10.03;;;7.87;;
5809;SDS011;16210;52.338;9.816;2023-02-21T05:56:04;12.80;;;5.70;;
5809;SDS011;16210;52.338;9.816;2023-02-21T06:01:11;11.23;;;5.70;;
5809;SDS011;16210;52.338;9.816;2023-02-21T06:06:15;5.50;;;5.03;;
5809;SDS011;16210;52.338;9.816;2023-02-21T06:11:22;8.03;;;6.23;;
5809;SDS011;16210;52.338;9.816;2023-02-21T06:16:31;7.80;;;5.37;;
5809;SDS011;16210;52.338;9.816;2023-02-21T06:21:35;11.53;;;7.03;;
5809;SDS011;16210;52.338;9.816;2023-02-21T06:26:40;16.63;;;9.70;;
5809;SDS011;16210;52.338;9.816;2023-02-21T06:31:43;2.73;;;2.50;;
5809;SDS011;16210;52.338;9.816;2023-02-21T06:36:50;16.27;;;8.20;;
5809;SDS011;16210;52.338;9.816;2023-02-21T06:41:54;5.90;;;5.17;;
5809;SDS011;16210;52.338;9.816;2023-02-21T06:46:58;10.10;;;5.93;;
5809;SDS011;16210;52.338;9.816;2023-02-21T06:52:01;7.17;;;5.13;;
5809;SDS011;16210;52.338;9.816;2023-02-21T06:57:06;8.10;;;5.20;;
5809;SDS011;16210;52.338;9.816;2023-02-21T07:02:10;1.50;;;1.43;;
5809;SDS011;16210;52.338;9.816;2023-02-21T07:07:19;7.73;;;3.80;;
5809;SDS011;16210;52.338;9.816;2023-02-21T07:12:24;2.97;;;2.77;;
5809;SDS011;16210;52.338;9.816;2023-02-21T07:17:28;20.40;;;10.17;;
5809;SDS011;16210;52.338;9.816;2023-02-21T07:22:32;6.50;;;5.90;;
5809;SDS011;16210;52.338;9.816;2023-02-21T07:27:37;1.60;;;1.60;;
5809;SDS011;16210;52.338;9.816;2023-02-21T07:32:40;2.63;;;2.43;;
5809;SDS011;16210;52.338;9.816;2023-02-21T07:37:43;2.03;;;1.93;;
5809;SDS011;16210;52.338;9.816;2023-02-21T07:42:48;4.33;;;2.60;;
5809;SDS011;16210;52.338;9.816;2023-02-21T07:47:52;14.87;;;7.13;;
5809;SDS011;16210;52.338;9.816;2023-02-21T07:52:55;7.73;;;6.60;;
5809;SDS011;16210;52.338;9.816;2023-02-21T07:58:02;3.53;;;3.40;;
5809;SDS011;16210;52.338;9.816;2023-02-21T08:03:06;8.50;;;5.50;;
5809;SDS011;16210;52.338;9.816;2023-02-21T08:08:10;11.60;;;6.33;;
5809;SDS011;16210;52.338;9.816;2023-02-21T08:13:16;14.20;;;6.00;;
5809;SDS011;16210;52.338;9.816;2023-02-21T08:18:20;7.57;;;6.20;;
5809;SDS011;16210;52.338;9.816;2023-02-21T08:23:25;14.73;;;7.80;;
5809;SDS011;16210;52.338;9.816;2023-02-21T08:28:30;4.27;;;3.87;;
5809;SDS011;16210;52.338;9.816;2023-02-21T08:33:34;14.57;;;6.47;;
5809;SDS011;16210;52.338;9.816;2023-02-21T08:38:37;15.13;;;6.07;;
5809;SDS011;16210;52.338;9.816;2023-02-21T08:43:43;4.30;;;3.70;;
5809;SDS011;16210;52.338;9.816;2023-02-21T08:48:48;2.60;;;2.27;;
5809;SDS011;16210;52.338;9.816;2023-02-21T08:53:52;13.53;;;6.83;;
5809;SDS011;16210;52.338;9.816;2023-02-21T08:58:57;7.73;;;5.80;;
5809;SDS011;16210;52.338;9.816;2023-02-21T09:04:01;8.53;;;4.47;;
5809;SDS011;16210;52.338;9.816;2023-02-21T09:09:06;9.50;;;4.73;;
5809;SDS011;16210;52.338;9.816;2023-02-21T09:14:11;12.53;;;7.13;;
5809;SDS011;16210;52.338;9.816;2023-02-21T09:19:14;14.20;;;8.53;;
5809;SDS011;16210;52.338;9.816;2023-02-21T09:24:17;13.43;;;8.43;;
5809;SDS011;16210;52.338;9.816;2023-02-21T09:29:27;2.17;;;1.60;;
5809;SDS011;16210;52.338;9.816;2023-02-21T09:34:46;6.30;;;2.67;;
5809;SDS011;16210;52.338;9.816;2023-02-21T09:39:50;8.03;;;5.87;;
5809;SDS011;16210;52.338;9.816;2023-02-21T09:44:55;6.07;;;4.23;;
5809;SDS011;16210;52.338;9.816;2023-02-21T09:49:59;13.13;;;7.20;;
5809;SDS011;16210;52.338;9.816;2023-02-21T09:55:06;13.17;;;6.17;;
5809;SDS011;16210;52.338;9.816;2023-02-21T10:00:17;9.43;;;6.10;;
5809;SDS011;16210;52.338;9.816;2023-02-21T10:05:25;13.10;;;7.23;;
5809;SDS011;16210;52.338;9.816;2023-02-21T10:10:37;10.00;;;6.13;;
5809;SDS011;16210;52.338;9.816;2023-02-21T10:15:47;10.27;;;5.23;;
5809;SDS011;16210;52.338;9.816;2023-02-21T10:20:56;5.70;;;3.30;;
5809;SDS011;16210;52.338;9.816;2023-02-21T10:26:03;8.20;;;4.97;;
5809;SDS011;16210;52.338;9.816;2023-02-21T10:31:13;1.47;;;1.47;;
5809;SDS011;16210;52.338;9.816;2023-02-21T10:36:20;20.43;;;4.60;;
5809;SDS011;16210;52.338;9.816;2023-02-21T10:41:26;0.93;;;0.87;;
5809;SDS011;16210;52.338;9.816;2023-02-21T10:46:34;10.13;;;6.47;;
5809;SDS011;16210;52.338;9.816;2023-02-21T10:51:41;4.43;;;4.03;;
5809;SDS011;16210;52.338;9.816;2023-02-21T10:56:45;3.07;;;2.03;;
5809;SDS011;16210;52.338;9.816;2023-02-21T11:01:51;13.20;;;2.50;;
5809;SDS011;16210;52.338;9.816;2023-02-21T11:06:55;41.37;;;5.20;;
5809;SDS011;16210;52.338;9.816;2023-02-21T11:12:01;9.43;;;5.83;;
5809;SDS011;16210;52.338;9.816;2023-02-21T11:17:15;10.80;;;5.93;;
5809;SDS011;16210;52.338;9.816;2023-02-21T11:22:21;10.23;;;6.20;;
5809;SDS011;16210;52.338;9.816;2023-02-21T11:27:27;9.73;;;4.17;;
5809;SDS011;16210;52.338;9.816;2023-02-21T11:32:34;1.57;;;1.50;;
5809;SDS011;16210;52.338;9.816;2023-02-21T11:37:46;9.10;;;6.70;;
5809;SDS011;16210;52.338;9.816;2023-02-21T11:42:50;4.50;;;2.43;;
5809;SDS011;16210;52.338;9.816;2023-02-21T11:47:58;14.53;;;8.17;;
5809;SDS011;16210;52.338;9.816;2023-02-21T11:53:05;2.70;;;2.30;;
5809;SDS011;16210;52.338;9.816;2023-02-21T11:58:14;1.73;;;1.63;;
5809;SDS011;16210;52.338;9.816;2023-02-21T12:03:31;7.63;;;5.90;;
5809;SDS011;16210;52.338;9.816;2023-02-21T12:08:44;1.23;;;0.80;;
5809;SDS011;16210;52.338;9.816;2023-02-21T12:13:53;4.53;;;3.17;;
5809;SDS011;16210;52.338;9.816;2023-02-21T12:19:11;3.20;;;2.50;;
5809;SDS011;16210;52.338;9.816;2023-02-21T12:24:28;2.97;;;1.60;;
5809;SDS011;16210;52.338;9.816;2023-02-21T12:29:42;7.37;;;4.27;;
5809;SDS011;16210;52.338;9.816;2023-02-21T12:35:21;1.77;;;1.67;;
5809;SDS011;16210;52.338;9.816;2023-02-21T12:40:36;3.33;;;3.03;;
5809;SDS011;16210;52.338;9.816;2023-02-21T12:45:48;1.50;;;1.40;;
5809;SDS011;16210;52.338;9.816;2023-02-21T12:50:59;6.53;;;4.17;;
5809;SDS011;16210;52.338;9.816;2023-02-21T12:56:06;1.67;;;1.20;;
5809;SDS011;16210;52.338;9.816;2023-02-21T13:01:13;1.53;;;1.43;;
5809;SDS011;16210;52.338;9.816;2023-02-21T13:06:26;0.40;;;0.30;;
5809;SDS011;16210;52.338;9.816;2023-02-21T13:11:34;2.50;;;1.73;;
5809;SDS011;16210;52.338;9.816;2023-02-21T13:16:39;7.77;;;1.60;;
5809;SDS011;16210;52.338;9.816;2023-02-21T13:21:48;12.03;;;2.50;;
5809;SDS011;16210;52.338;9.816;2023-02-21T13:27:06;5.90;;;3.90;;
5809;SDS011;16210;52.338;9.816;2023-02-21T13:32:21;0.50;;;0.50;;
5809;SDS011;16210;52.338;9.816;2023-02-21T13:37:27;3.10;;;1.87;;
5809;SDS011;16210;52.338;9.816;2023-02-21T13:42:32;2.83;;;1.27;;
5809;SDS011;16210;52.338;9.816;2023-02-21T13:53:16;2.30;;;1.33;;
5809;SDS011;16210;52.338;9.816;2023-02-21T14:03:46;1.03;;;0.77;;
5809;SDS011;16210;52.338;9.816;2023-02-21T14:08:52;8.53;;;4.47;;
5809;SDS011;16210;52.338;9.816;2023-02-21T14:13:57;3.97;;;1.83;;
5809;SDS011;16210;52.338;9.816;2023-02-21T14:19:04;3.10;;;2.40;;
5809;SDS011;16210;52.338;9.816;2023-02-21T14:24:12;0.60;;;0.60;;
5809;SDS011;16210;52.338;9.816;2023-02-21T14:29:34;3.53;;;3.00;;
5809;SDS011;16210;52.338;9.816;2023-02-21T14:34:39;2.40;;;1.63;;
5809;SDS011;16210;52.338;9.816;2023-02-21T14:39:54;6.60;;;3.17;;
5809;SDS011;16210;52.338;9.816;2023-02-21T14:45:17;2.03;;;1.93;;
5809;SDS011;16210;52.338;9.816;2023-02-21T14:50:28;0.40;;;0.30;;
5809;SDS011;16210;52.338;9.816;2023-02-21T14:55:50;1.70;;;1.60;;
5809;SDS011;16210;52.338;9.816;2023-02-21T15:01:05;5.23;;;1.27;;
5809;SDS011;16210;52.338;9.816;2023-02-21T15:06:11;4.53;;;2.20;;
5809;SDS011;16210;52.338;9.816;2023-02-21T15:11:23;2.30;;;2.10;;
5809;SDS011;16210;52.338;9.816;2023-02-21T15:16:29;2.60;;;1.00;;
5809;SDS011;16210;52.338;9.816;2023-02-21T15:21:33;3.80;;;3.10;;
5809;SDS011;16210;52.338;9.816;2023-02-21T15:26:38;0.40;;;0.30;;
5809;SDS011;16210;52.338;9.816;2023-02-21T15:31:42;0.67;;;0.57;;
5809;SDS011;16210;52.338;9.816;2023-02-21T15:36:50;5.93;;;4.47;;
5809;SDS011;16210;52.338;9.816;2023-02-21T15:41:57;2.53;;;2.33;;
5809;SDS011;16210;52.338;9.816;2023-02-21T15:47:02;0.60;;;0.60;;
5809;SDS011;16210;52.338;9.816;2023-02-21T15:52:24;9.33;;;4.57;;
5809;SDS011;16210;52.338;9.816;2023-02-21T15:57:30;2.50;;;2.30;;
5809;SDS011;16210;52.338;9.816;2023-02-21T16:02:33;2.10;;;2.00;;
5809;SDS011;16210;52.338;9.816;2023-02-21T16:07:37;1.90;;;1.30;;
5809;SDS011;16210;52.338;9.816;2023-02-21T16:12:43;0.80;;;0.80;;
5809;SDS011;16210;52.338;9.816;2023-02-21T16:17:51;0.60;;;0.60;;
5809;SDS011;16210;52.338;9.816;2023-02-21T16:28:26;1.10;;;1.03;;
5809;SDS011;16210;52.338;9.816;2023-02-21T16:33:30;0.40;;;0.40;;
5809;SDS011;16210;52.338;9.816;2023-02-21T16:38:34;2.37;;;2.27;;
5809;SDS011;16210;52.338;9.816;2023-02-21T16:43:39;0.60;;;0.60;;
5809;SDS011;16210;52.338;9.816;2023-02-21T16:48:42;3.27;;;1.60;;
5809;SDS011;16210;52.338;9.816;2023-02-21T16:53:46;5.17;;;1.73;;
5809;SDS011;16210;52.338;9.816;2023-02-21T16:58:53;0.50;;;0.50;;
5809;SDS011;16210;52.338;9.816;2023-02-21T17:03:57;4.33;;;2.90;;
5809;SDS011;16210;52.338;9.816;2023-02-21T17:09:02;0.40;;;0.40;;
5809;SDS011;16210;52.338;9.816;2023-02-21T17:14:07;0.80;;;0.80;;
5809;SDS011;16210;52.338;9.816;2023-02-21T17:19:11;0.60;;;0.53;;
5809;SDS011;16210;52.338;9.816;2023-02-21T17:24:16;1.20;;;1.13;;
5809;SDS011;16210;52.338;9.816;2023-02-21T17:29:20;0.87;;;0.87;;
5809;SDS011;16210;52.338;9.816;2023-02-21T17:34:24;0.80;;;0.80;;
5809;SDS011;16210;52.338;9.816;2023-02-21T17:39:27;2.67;;;1.50;;
5809;SDS011;16210;52.338;9.816;2023-02-21T17:44:33;0.40;;;0.40;;
5809;SDS011;16210;52.338;9.816;2023-02-21T17:49:38;5.63;;;2.37;;
5809;SDS011;16210;52.338;9.816;2023-02-21T17:54:42;0.93;;;0.93;;
5809;SDS011;16210;52.338;9.816;2023-02-21T17:59:47;0.50;;;0.50;;
5809;SDS011;16210;52.338;9.816;2023-02-21T18:04:50;2.67;;;1.97;;
5809;SDS011;16210;52.338;9.816;2023-02-21T18:09:54;1.40;;;1.40;;
5809;SDS011;16210;52.338;9.816;2023-02-21T18:14:58;0.40;;;0.40;;
5809;SDS011;16210;52.338;9.816;2023-02-21T18:20:02;0.50;;;0.50;;
5809;SDS011;16210;52.338;9.816;2023-02-21T18:25:10;0.40;;;0.40;;
5809;SDS011;16210;52.338;9.816;2023-02-21T18:30:17;2.63;;;2.53;;
5809;SDS011;16210;52.338;9.816;2023-02-21T18:35:21;16.73;;;2.00;;
5809;SDS011;16210;52.338;9.816;2023-02-21T18:40:24;0.53;;;0.53;;
5809;SDS011;16210;52.338;9.816;2023-02-21T18:45:37;3.20;;;2.90;;
5809;SDS011;16210;52.338;9.816;2023-02-21T18:50:41;0.60;;;0.60;;
5809;SDS011;16210;52.338;9.816;2023-02-21T18:55:45;0.40;;;0.40;;
5809;SDS011;16210;52.338;9.816;2023-02-21T19:00:50;0.40;;;0.40;;
5809;SDS011;16210;52.338;9.816;2023-02-21T19:05:54;1.10;;;1.10;;
5809;SDS011;16210;52.338;9.816;2023-02-21T19:11:03;5.93;;;4.63;;
5809;SDS011;16210;52.338;9.816;2023-02-21T19:16:08;0.40;;;0.40;;
5809;SDS011;16210;52.338;9.816;2023-02-21T19:21:12;0.40;;;0.40;;
5809;SDS011;16210;52.338;9.816;2023-02-21T19:26:16;0.40;;;0.40;;
5809;SDS011;16210;52.338;9.816;2023-02-21T19:31:21;1.23;;;1.23;;
5809;SDS011;16210;52.338;9.816;2023-02-21T19:36:25;6.37;;;2.87;;
5809;SDS011;16210;52.338;9.816;2023-02-21T19:41:29;0.40;;;0.40;;
5809;SDS011;16210;52.338;9.816;2023-02-21T19:46:34;0.40;;;0.40;;
5809;SDS011;16210;52.338;9.816;2023-02-21T19:51:37;0.40;;;0.40;;
5809;SDS011;16210;52.338;9.816;2023-02-21T19:56:41;0.47;;;0.47;;
5809;SDS011;16210;52.338;9.816;2023-02-21T20:01:46;1.17;;;1.17;;
5809;SDS011;16210;52.338;9.816;2023-02-21T20:06:49;0.40;;;0.40;;
5809;SDS011;16210;52.338;9.816;2023-02-21T20:11:53;0.40;;;0.40;;
5809;SDS011;16210;52.338;9.816;2023-02-21T20:16:58;0.80;;;0.80;;
5809;SDS011;16210;52.338;9.816;2023-02-21T20:22:01;1.43;;;1.37;;
5809;SDS011;16210;52.338;9.816;2023-02-21T20:27:05;0.50;;;0.50;;
5809;SDS011;16210;52.338;9.816;2023-02-21T20:32:09;0.50;;;0.50;;
5809;SDS011;16210;52.338;9.816;2023-02-21T20:37:13;0.40;;;0.40;;
5809;SDS011;16210;52.338;9.816;2023-02-21T20:42:17;0.40;;;0.40;;
5809;SDS011;16210;52.338;9.816;2023-02-21T20:47:24;0.50;;;0.50;;
5809;SDS011;16210;52.338;9.816;2023-02-21T20:52:30;0.40;;;0.40;;
5809;SDS011;16210;52.338;9.816;2023-02-21T20:57:33;0.40;;;0.40;;
5809;SDS011;16210;52.338;9.816;2023-02-21T21:02:39;0.40;;;0.40;;
5809;SDS011;16210;52.338;9.816;2023-02-21T21:07:43;0.80;;;0.80;;
5809;SDS011;16210;52.338;9.816;2023-02-21T21:12:47;0.40;;;0.40;;
5809;SDS011;16210;52.338;9.816;2023-02-21T21:17:53;0.40;;;0.40;;
5809;SDS011;16210;52.338;9.816;2023-02-21T21:22:57;0.50;;;0.50;;
5809;SDS011;16210;52.338;9.816;2023-02-21T21:28:02;0.40;;;0.40;;
5809;SDS011;16210;52.338;9.816;2023-02-21T21:33:08;0.40;;;0.40;;
5809;SDS011;16210;52.338;9.816;2023-02-21T21:38:12;0.40;;;0.40;;
5809;SDS011;16210;52.338;9.816;2023-02-21T21:43:17;0.50;;;0.50;;
5809;SDS011;16210;52.338;9.816;2023-02-21T21:48:22;0.40;;;0.40;;
5809;SDS011;16210;52.338;9.816;2023-02-21T21:53:25;0.40;;;0.40;;
5809;SDS011;16210;52.338;9.816;2023-02-21T21:58:29;0.40;;;0.40;;
5809;SDS011;16210;52.338;9.816;2023-02-21T22:03:36;0.40;;;0.40;;
5809;SDS011;16210;52.338;9.816;2023-02-21T22:08:39;0.40;;;0.40;;
5809;SDS011;16210;52.338;9.816;2023-02-21T22:13:42;0.40;;;0.40;;
5809;SDS011;16210;52.338;9.816;2023-02-21T22:18:48;0.40;;;0.40;;
5809;SDS011;16210;52.338;9.816;2023-02-21T22:23:53;0.40;;;0.40;;
5809;SDS011;16210;52.338;9.816;2023-02-21T22:28:58;0.40;;;0.40;;
5809;SDS011;16210;52.338;9.816;2023-02-21T22:34:08;0.47;;;0.47;;
5809;SDS011;16210;52.338;9.816;2023-02-21T22:39:25;0.60;;;0.60;;
5809;SDS011;16210;52.338;9.816;2023-02-21T22:44:28;0.70;;;0.70;;
5809;SDS011;16210;52.338;9.816;2023-02-21T22:49:33;0.50;;;0.50;;
5809;SDS011;16210;52.338;9.816;2023-02-21T22:54:37;0.40;;;0.40;;
5809;SDS011;16210;52.338;9.816;2023-02-21T22:59:41;0.50;;;0.50;;
5809;SDS011;16210;52.338;9.816;2023-02-21T23:04:47;0.50;;;0.50;;
5809;SDS011;16210;52.338;9.816;2023-02-21T23:09:51;0.40;;;0.40;;
5809;SDS011;16210;52.338;9.816;2023-02-21T23:14:54;0.47;;;0.47;;
5809;SDS011;16210;52.338;9.816;2023-02-21T23:19:59;0.50;;;0.50;;
5809;SDS011;16210;52.338;9.816;2023-02-21T23:25:18;0.90;;;0.90;;
5809;SDS011;16210;52.338;9.816;2023-02-21T23:30:24;2.77;;;2.50;;
5809;SDS011;16210;52.338;9.816;2023-02-21T23:35:30;0.50;;;0.50;;
5809;SDS011;16210;52.338;9.816;2023-02-21T23:40:33;0.50;;;0.50;;
5809;SDS011;16210;52.338;9.816;2023-02-21T23:45:40;0.50;;;0.50;;
5809;SDS011;16210;52.338;9.816;2023-02-21T23:50:45;0.50;;;0.50;;
5809;SDS011;16210;52.338;9.816;2023-02-21T23:55:49;2.47;;;2.37;;
